sensor_id;sensor_type;location;lat;lon;timestamp;P1;durP1;ratioP1;P2;durP2;ratioP2
9940;SDS011;5009;50.656;7.188;2023-05-07T04:00:17;10.87;;;6.90;;
9940;SDS011;5009;50.656;7.188;2023-05-07T04:02:42;6.33;;;5.83;;
9940;SDS011;5009;50.656;7.188;2023-05-07T04:05:08;7.10;;;6.43;;
9940;SDS011;5009;50.656;7.188;2023-05-07T04:07:34;6.27;;;5.77;;
9940;SDS011;5009;50.656;7.188;2023-05-07T04:09:59;6.80;;;6.20;;
9940;SDS011;5009;50.656;7.188;2023-05-07T04:12:25;10.27;;;6.10;;
9940;SDS011;5009;50.656;7.188;2023-05-07T04:14:51;8.00;;;5.97;;
9940;SDS011;5009;50.656;7.188;2023-05-07T04:17:16;8.57;;;6.13;;
9940;SDS011;5009;50.656;7.188;2023-05-07T04:19:42;6.03;;;5.43;;
9940;SDS011;5009;50.656;7.188;2023-05-07T04:22:10;6.67;;;6.03;;
9940;SDS011;5009;50.656;7.188;2023-05-07T04:24:36;7.00;;;6.40;;
9940;SDS011;5009;50.656;7.188;2023-05-07T04:27:02;7.07;;;6.33;;
9940;SDS011;5009;50.656;7.188;2023-05-07T04:29:27;7.00;;;6.27;;
9940;SDS011;5009;50.656;7.188;2023-05-07T04:31:53;6.90;;;6.20;;
9940;SDS011;5009;50.656;7.188;2023-05-07T04:34:21;7.47;;;6.73;;
9940;SDS011;5009;50.656;7.188;2023-05-07T04:36:46;6.83;;;6.13;;
9940;SDS011;5009;50.656;7.188;2023-05-07T04:39:12;7.37;;;6.63;;
9940;SDS011;5009;50.656;7.188;2023-05-07T04:41:38;7.47;;;6.73;;
9940;SDS011;5009;50.656;7.188;2023-05-07T04:44:04;8.70;;;7.00;;
9940;SDS011;5009;50.656;7.188;2023-05-07T04:46:30;7.90;;;7.20;;
9940;SDS011;5009;50.656;7.188;2023-05-07T04:48:56;7.70;;;7.00;;
9940;SDS011;5009;50.656;7.188;2023-05-07T04:51:21;7.73;;;6.97;;
9940;SDS011;5009;50.656;7.188;2023-05-07T04:53:47;7.10;;;6.40;;
9940;SDS011;5009;50.656;7.188;2023-05-07T04:56:13;7.87;;;7.17;;
9940;SDS011;5009;50.656;7.188;2023-05-07T04:58:39;8.07;;;7.03;;
9940;SDS011;5009;50.656;7.188;2023-05-07T05:01:05;8.37;;;7.30;;
9940;SDS011;5009;50.656;7.188;2023-05-07T05:03:31;8.00;;;7.20;;
9940;SDS011;5009;50.656;7.188;2023-05-07T05:05:56;10.33;;;7.00;;
9940;SDS011;5009;50.656;7.188;2023-05-07T05:08:24;8.77;;;7.03;;
9940;SDS011;5009;50.656;7.188;2023-05-07T05:10:50;8.87;;;7.20;;
9940;SDS011;5009;50.656;7.188;2023-05-07T05:13:15;8.63;;;7.83;;
9940;SDS011;5009;50.656;7.188;2023-05-07T05:15:41;7.60;;;6.90;;
9940;SDS011;5009;50.656;7.188;2023-05-07T05:18:07;8.57;;;6.97;;
9940;SDS011;5009;50.656;7.188;2023-05-07T05:20:32;7.60;;;7.00;;
9940;SDS011;5009;50.656;7.188;2023-05-07T05:22:58;7.37;;;6.63;;
9940;SDS011;5009;50.656;7.188;2023-05-07T05:25:23;6.83;;;6.33;;
9940;SDS011;5009;50.656;7.188;2023-05-07T05:27:49;7.23;;;6.53;;
9940;SDS011;5009;50.656;7.188;2023-05-07T05:30:14;6.93;;;6.10;;
9940;SDS011;5009;50.656;7.188;2023-05-07T05:32:40;6.20;;;5.60;;
9940;SDS011;5009;50.656;7.188;2023-05-07T05:35:06;6.40;;;5.80;;
9940;SDS011;5009;50.656;7.188;2023-05-07T05:37:32;6.67;;;5.80;;
9940;SDS011;5009;50.656;7.188;2023-05-07T05:39:57;6.33;;;5.83;;
9940;SDS011;5009;50.656;7.188;2023-05-07T05:42:23;6.87;;;5.73;;
9940;SDS011;5009;50.656;7.188;2023-05-07T05:44:48;6.20;;;5.70;;
9940;SDS011;5009;50.656;7.188;2023-05-07T05:47:14;6.73;;;6.13;;
9940;SDS011;5009;50.656;7.188;2023-05-07T05:49:39;6.77;;;6.17;;
9940;SDS011;5009;50.656;7.188;2023-05-07T05:52:05;6.97;;;5.80;;
9940;SDS011;5009;50.656;7.188;2023-05-07T05:54:31;6.27;;;5.67;;
9940;SDS011;5009;50.656;7.188;2023-05-07T05:56:56;6.40;;;5.67;;
9940;SDS011;5009;50.656;7.188;2023-05-07T05:59:22;5.37;;;4.87;;
9940;SDS011;5009;50.656;7.188;2023-05-07T06:01:48;7.20;;;5.60;;
9940;SDS011;5009;50.656;7.188;2023-05-07T06:04:13;5.83;;;4.80;;
9940;SDS011;5009;50.656;7.188;2023-05-07T06:06:39;5.50;;;4.45;;
9940;SDS011;5009;50.656;7.188;2023-05-07T06:09:05;4.25;;;3.85;;
9940;SDS011;5009;50.656;7.188;2023-05-07T06:11:31;5.45;;;4.38;;
9940;SDS011;5009;50.656;7.188;2023-05-07T06:13:56;4.25;;;3.95;;
9940;SDS011;5009;50.656;7.188;2023-05-07T06:16:22;3.95;;;3.55;;
9940;SDS011;5009;50.656;7.188;2023-05-07T06:18:49;4.30;;;4.00;;
9940;SDS011;5009;50.656;7.188;2023-05-07T06:21:15;3.88;;;3.58;;
9940;SDS011;5009;50.656;7.188;2023-05-07T06:23:40;4.88;;;3.92;;
9940;SDS011;5009;50.656;7.188;2023-05-07T06:26:06;3.85;;;3.53;;
9940;SDS011;5009;50.656;7.188;2023-05-07T06:28:32;3.20;;;2.90;;
9940;SDS011;5009;50.656;7.188;2023-05-07T06:33:39;3.45;;;3.13;;
9940;SDS011;5009;50.656;7.188;2023-05-07T06:36:05;3.00;;;2.80;;
9940;SDS011;5009;50.656;7.188;2023-05-07T06:38:31;4.70;;;3.22;;
9940;SDS011;5009;50.656;7.188;2023-05-07T06:40:56;3.10;;;2.80;;
9940;SDS011;5009;50.656;7.188;2023-05-07T06:43:22;3.90;;;2.75;;
9940;SDS011;5009;50.656;7.188;2023-05-07T06:45:48;3.85;;;3.10;;
9940;SDS011;5009;50.656;7.188;2023-05-07T06:48:14;3.55;;;3.35;;
9940;SDS011;5009;50.656;7.188;2023-05-07T06:50:39;4.60;;;4.20;;
9940;SDS011;5009;50.656;7.188;2023-05-07T06:53:06;4.32;;;3.90;;
9940;SDS011;5009;50.656;7.188;2023-05-07T06:55:32;4.43;;;3.53;;
9940;SDS011;5009;50.656;7.188;2023-05-07T06:57:57;4.10;;;3.78;;
9940;SDS011;5009;50.656;7.188;2023-05-07T07:00:25;4.85;;;4.32;;
9940;SDS011;5009;50.656;7.188;2023-05-07T07:02:51;5.68;;;3.80;;
9940;SDS011;5009;50.656;7.188;2023-05-07T07:05:18;4.55;;;4.13;;
9940;SDS011;5009;50.656;7.188;2023-05-07T07:07:43;5.90;;;4.28;;
9940;SDS011;5009;50.656;7.188;2023-05-07T07:10:09;4.90;;;4.47;;
9940;SDS011;5009;50.656;7.188;2023-05-07T07:12:35;6.95;;;4.90;;
9940;SDS011;5009;50.656;7.188;2023-05-07T07:15:00;5.65;;;4.63;;
9940;SDS011;5009;50.656;7.188;2023-05-07T07:17:27;5.10;;;4.70;;
9940;SDS011;5009;50.656;7.188;2023-05-07T07:19:53;9.07;;;5.18;;
9940;SDS011;5009;50.656;7.188;2023-05-07T07:22:19;5.45;;;4.80;;
9940;SDS011;5009;50.656;7.188;2023-05-07T07:24:44;5.20;;;4.72;;
9940;SDS011;5009;50.656;7.188;2023-05-07T07:27:10;4.45;;;4.10;;
9940;SDS011;5009;50.656;7.188;2023-05-07T07:29:35;5.60;;;4.43;;
9940;SDS011;5009;50.656;7.188;2023-05-07T07:32:01;5.43;;;4.25;;
9940;SDS011;5009;50.656;7.188;2023-05-07T07:34:26;7.72;;;4.53;;
9940;SDS011;5009;50.656;7.188;2023-05-07T07:36:52;5.05;;;4.65;;
9940;SDS011;5009;50.656;7.188;2023-05-07T07:39:17;5.10;;;4.60;;
9940;SDS011;5009;50.656;7.188;2023-05-07T07:41:43;5.93;;;4.45;;
9940;SDS011;5009;50.656;7.188;2023-05-07T07:44:08;4.60;;;4.20;;
9940;SDS011;5009;50.656;7.188;2023-05-07T07:46:37;4.20;;;3.72;;
9940;SDS011;5009;50.656;7.188;2023-05-07T07:49:03;4.47;;;3.90;;
9940;SDS011;5009;50.656;7.188;2023-05-07T07:51:28;4.43;;;4.03;;
9940;SDS011;5009;50.656;7.188;2023-05-07T07:53:55;4.15;;;3.85;;
9940;SDS011;5009;50.656;7.188;2023-05-07T07:56:22;4.20;;;3.80;;
9940;SDS011;5009;50.656;7.188;2023-05-07T07:58:48;4.50;;;4.05;;
9940;SDS011;5009;50.656;7.188;2023-05-07T08:01:13;3.78;;;3.47;;
9940;SDS011;5009;50.656;7.188;2023-05-07T08:03:39;5.53;;;4.20;;
9940;SDS011;5009;50.656;7.188;2023-05-07T08:06:04;5.15;;;3.83;;
9940;SDS011;5009;50.656;7.188;2023-05-07T08:08:30;4.00;;;3.55;;
9940;SDS011;5009;50.656;7.188;2023-05-07T08:10:56;3.67;;;3.38;;
9940;SDS011;5009;50.656;7.188;2023-05-07T08:13:21;3.75;;;3.35;;
9940;SDS011;5009;50.656;7.188;2023-05-07T08:15:47;3.40;;;3.10;;
9940;SDS011;5009;50.656;7.188;2023-05-07T08:18:12;3.78;;;3.42;;
9940;SDS011;5009;50.656;7.188;2023-05-07T08:20:38;3.70;;;3.40;;
9940;SDS011;5009;50.656;7.188;2023-05-07T08:23:04;4.65;;;3.03;;
9940;SDS011;5009;50.656;7.188;2023-05-07T08:25:34;3.22;;;2.85;;
9940;SDS011;5009;50.656;7.188;2023-05-07T08:28:02;2.92;;;2.72;;
9940;SDS011;5009;50.656;7.188;2023-05-07T08:30:28;3.28;;;3.08;;
9940;SDS011;5009;50.656;7.188;2023-05-07T08:32:53;3.30;;;3.05;;
9940;SDS011;5009;50.656;7.188;2023-05-07T08:35:19;3.35;;;3.05;;
9940;SDS011;5009;50.656;7.188;2023-05-07T08:37:45;3.55;;;3.25;;
9940;SDS011;5009;50.656;7.188;2023-05-07T08:40:10;3.65;;;2.72;;
9940;SDS011;5009;50.656;7.188;2023-05-07T08:42:36;3.38;;;3.15;;
9940;SDS011;5009;50.656;7.188;2023-05-07T08:45:03;4.18;;;2.65;;
9940;SDS011;5009;50.656;7.188;2023-05-07T08:47:34;4.38;;;3.00;;
9940;SDS011;5009;50.656;7.188;2023-05-07T08:50:05;3.00;;;2.60;;
9940;SDS011;5009;50.656;7.188;2023-05-07T08:52:31;3.22;;;3.00;;
9940;SDS011;5009;50.656;7.188;2023-05-07T08:54:57;3.33;;;3.03;;
9940;SDS011;5009;50.656;7.188;2023-05-07T08:57:24;3.13;;;2.83;;
9940;SDS011;5009;50.656;7.188;2023-05-07T08:59:49;3.20;;;2.85;;
9940;SDS011;5009;50.656;7.188;2023-05-07T09:02:15;3.45;;;3.10;;
9940;SDS011;5009;50.656;7.188;2023-05-07T09:04:41;3.13;;;2.83;;
9940;SDS011;5009;50.656;7.188;2023-05-07T09:07:07;3.65;;;3.25;;
9940;SDS011;5009;50.656;7.188;2023-05-07T09:09:32;4.20;;;2.88;;
9940;SDS011;5009;50.656;7.188;2023-05-07T09:11:59;5.82;;;3.40;;
9940;SDS011;5009;50.656;7.188;2023-05-07T09:14:24;3.67;;;3.30;;
9940;SDS011;5009;50.656;7.188;2023-05-07T09:16:51;3.25;;;2.95;;
9940;SDS011;5009;50.656;7.188;2023-05-07T09:19:21;6.07;;;3.20;;
9940;SDS011;5009;50.656;7.188;2023-05-07T09:21:48;3.50;;;3.05;;
9940;SDS011;5009;50.656;7.188;2023-05-07T09:24:15;3.13;;;2.92;;
9940;SDS011;5009;50.656;7.188;2023-05-07T09:26:41;3.17;;;2.90;;
9940;SDS011;5009;50.656;7.188;2023-05-07T09:29:07;2.67;;;2.47;;
9940;SDS011;5009;50.656;7.188;2023-05-07T09:31:38;2.65;;;2.45;;
9940;SDS011;5009;50.656;7.188;2023-05-07T09:34:04;3.10;;;2.80;;
9940;SDS011;5009;50.656;7.188;2023-05-07T09:36:31;3.53;;;2.67;;
9940;SDS011;5009;50.656;7.188;2023-05-07T09:38:59;3.22;;;2.70;;
9940;SDS011;5009;50.656;7.188;2023-05-07T09:41:25;3.03;;;2.72;;
9940;SDS011;5009;50.656;7.188;2023-05-07T09:43:54;2.83;;;2.63;;
9940;SDS011;5009;50.656;7.188;2023-05-07T09:46:20;3.70;;;2.70;;
9940;SDS011;5009;50.656;7.188;2023-05-07T09:48:53;2.45;;;2.17;;
9940;SDS011;5009;50.656;7.188;2023-05-07T09:51:24;2.75;;;2.50;;
9940;SDS011;5009;50.656;7.188;2023-05-07T09:53:54;2.38;;;2.15;;
9940;SDS011;5009;50.656;7.188;2023-05-07T09:56:21;3.28;;;2.50;;
9940;SDS011;5009;50.656;7.188;2023-05-07T09:58:47;3.63;;;2.60;;
9940;SDS011;5009;50.656;7.188;2023-05-07T10:01:16;2.70;;;2.50;;
9940;SDS011;5009;50.656;7.188;2023-05-07T10:03:44;3.25;;;2.17;;
9940;SDS011;5009;50.656;7.188;2023-05-07T10:06:10;2.63;;;2.42;;
9940;SDS011;5009;50.656;7.188;2023-05-07T10:08:38;3.05;;;2.85;;
9940;SDS011;5009;50.656;7.188;2023-05-07T10:11:05;2.40;;;2.30;;
9940;SDS011;5009;50.656;7.188;2023-05-07T10:13:33;2.60;;;2.22;;
9940;SDS011;5009;50.656;7.188;2023-05-07T10:16:03;2.42;;;2.20;;
9940;SDS011;5009;50.656;7.188;2023-05-07T10:18:30;2.47;;;2.17;;
9940;SDS011;5009;50.656;7.188;2023-05-07T10:21:02;3.15;;;2.30;;
9940;SDS011;5009;50.656;7.188;2023-05-07T10:23:39;5.07;;;2.60;;
9940;SDS011;5009;50.656;7.188;2023-05-07T10:26:06;3.00;;;2.70;;
9940;SDS011;5009;50.656;7.188;2023-05-07T10:28:34;2.28;;;2.10;;
9940;SDS011;5009;50.656;7.188;2023-05-07T10:33:46;4.13;;;2.45;;
9940;SDS011;5009;50.656;7.188;2023-05-07T10:36:14;2.88;;;1.90;;
9940;SDS011;5009;50.656;7.188;2023-05-07T10:38:39;2.20;;;2.05;;
9940;SDS011;5009;50.656;7.188;2023-05-07T10:41:05;2.40;;;1.90;;
9940;SDS011;5009;50.656;7.188;2023-05-07T10:43:38;2.92;;;2.50;;
9940;SDS011;5009;50.656;7.188;2023-05-07T10:46:15;1.92;;;1.83;;
9940;SDS011;5009;50.656;7.188;2023-05-07T10:49:05;2.00;;;1.90;;
9940;SDS011;5009;50.656;7.188;2023-05-07T10:51:32;3.10;;;2.08;;
9940;SDS011;5009;50.656;7.188;2023-05-07T10:56:42;3.00;;;2.33;;
9940;SDS011;5009;50.656;7.188;2023-05-07T11:04:31;2.60;;;2.40;;
9940;SDS011;5009;50.656;7.188;2023-05-07T11:15:08;2.25;;;1.90;;
9940;SDS011;5009;50.656;7.188;2023-05-07T11:17:53;2.30;;;2.20;;
9940;SDS011;5009;50.656;7.188;2023-05-07T11:26:09;3.00;;;1.92;;
9940;SDS011;5009;50.656;7.188;2023-05-07T11:28:36;2.30;;;2.10;;
9940;SDS011;5009;50.656;7.188;2023-05-07T11:31:06;2.40;;;2.30;;
9940;SDS011;5009;50.656;7.188;2023-05-07T11:33:33;2.58;;;2.40;;
9940;SDS011;5009;50.656;7.188;2023-05-07T11:35:59;2.97;;;2.15;;
9940;SDS011;5009;50.656;7.188;2023-05-07T11:38:26;2.60;;;2.40;;
9940;SDS011;5009;50.656;7.188;2023-05-07T11:40:57;2.92;;;2.70;;
9940;SDS011;5009;50.656;7.188;2023-05-07T11:43:29;3.90;;;2.22;;
9940;SDS011;5009;50.656;7.188;2023-05-07T11:45:54;2.30;;;2.10;;
9940;SDS011;5009;50.656;7.188;2023-05-07T11:48:29;2.10;;;2.00;;
9940;SDS011;5009;50.656;7.188;2023-05-07T11:53:27;2.60;;;2.40;;
9940;SDS011;5009;50.656;7.188;2023-05-07T11:55:59;3.03;;;2.15;;
9940;SDS011;5009;50.656;7.188;2023-05-07T11:58:25;2.88;;;1.90;;
9940;SDS011;5009;50.656;7.188;2023-05-07T12:00:52;3.00;;;2.45;;
9940;SDS011;5009;50.656;7.188;2023-05-07T12:03:18;2.95;;;2.08;;
9940;SDS011;5009;50.656;7.188;2023-05-07T12:05:47;2.00;;;1.90;;
9940;SDS011;5009;50.656;7.188;2023-05-07T12:08:14;2.45;;;2.22;;
9940;SDS011;5009;50.656;7.188;2023-05-07T12:10:41;2.20;;;2.00;;
9940;SDS011;5009;50.656;7.188;2023-05-07T12:13:20;1.88;;;1.77;;
9940;SDS011;5009;50.656;7.188;2023-05-07T12:15:56;2.03;;;1.92;;
9940;SDS011;5009;50.656;7.188;2023-05-07T12:18:22;2.45;;;2.15;;
9940;SDS011;5009;50.656;7.188;2023-05-07T12:20:48;2.00;;;1.90;;
9940;SDS011;5009;50.656;7.188;2023-05-07T12:23:15;2.03;;;1.92;;
9940;SDS011;5009;50.656;7.188;2023-05-07T12:25:42;2.25;;;2.08;;
9940;SDS011;5009;50.656;7.188;2023-05-07T12:28:15;1.77;;;1.65;;
9940;SDS011;5009;50.656;7.188;2023-05-07T12:30:42;2.15;;;2.05;;
9940;SDS011;5009;50.656;7.188;2023-05-07T12:33:09;2.20;;;2.00;;
9940;SDS011;5009;50.656;7.188;2023-05-07T12:35:41;2.65;;;2.45;;
9940;SDS011;5009;50.656;7.188;2023-05-07T12:38:08;2.35;;;2.17;;
9940;SDS011;5009;50.656;7.188;2023-05-07T12:40:45;2.78;;;2.15;;
9940;SDS011;5009;50.656;7.188;2023-05-07T12:43:15;3.70;;;2.13;;
9940;SDS011;5009;50.656;7.188;2023-05-07T12:45:48;2.13;;;2.00;;
9940;SDS011;5009;50.656;7.188;2023-05-07T12:48:15;4.05;;;2.10;;
9940;SDS011;5009;50.656;7.188;2023-05-07T12:50:41;4.13;;;2.03;;
9940;SDS011;5009;50.656;7.188;2023-05-07T12:53:07;2.47;;;2.30;;
9940;SDS011;5009;50.656;7.188;2023-05-07T12:56:06;2.53;;;2.40;;
9940;SDS011;5009;50.656;7.188;2023-05-07T12:58:29;2.53;;;2.28;;
9940;SDS011;5009;50.656;7.188;2023-05-07T13:00:56;2.30;;;2.10;;
9940;SDS011;5009;50.656;7.188;2023-05-07T13:03:34;2.92;;;2.70;;
9940;SDS011;5009;50.656;7.188;2023-05-07T13:06:10;3.10;;;2.20;;
9940;SDS011;5009;50.656;7.188;2023-05-07T13:08:37;2.42;;;2.22;;
9940;SDS011;5009;50.656;7.188;2023-05-07T13:11:06;2.72;;;2.53;;
9940;SDS011;5009;50.656;7.188;2023-05-07T13:13:34;2.25;;;2.05;;
9940;SDS011;5009;50.656;7.188;2023-05-07T13:16:00;2.33;;;2.10;;
9940;SDS011;5009;50.656;7.188;2023-05-07T13:18:28;1.85;;;1.75;;
9940;SDS011;5009;50.656;7.188;2023-05-07T13:20:55;2.25;;;1.92;;
9940;SDS011;5009;50.656;7.188;2023-05-07T13:23:20;2.00;;;1.90;;
9940;SDS011;5009;50.656;7.188;2023-05-07T13:25:46;2.30;;;2.20;;
9940;SDS011;5009;50.656;7.188;2023-05-07T13:28:13;2.38;;;2.17;;
9940;SDS011;5009;50.656;7.188;2023-05-07T13:30:38;2.53;;;2.08;;
9940;SDS011;5009;50.656;7.188;2023-05-07T13:33:05;2.80;;;2.28;;
9940;SDS011;5009;50.656;7.188;2023-05-07T13:35:31;2.45;;;2.33;;
9940;SDS011;5009;50.656;7.188;2023-05-07T13:37:57;3.28;;;2.20;;
9940;SDS011;5009;50.656;7.188;2023-05-07T13:40:23;2.70;;;2.50;;
9940;SDS011;5009;50.656;7.188;2023-05-07T13:42:48;2.35;;;2.13;;
9940;SDS011;5009;50.656;7.188;2023-05-07T13:45:15;2.47;;;2.28;;
9940;SDS011;5009;50.656;7.188;2023-05-07T13:47:41;2.45;;;2.25;;
9940;SDS011;5009;50.656;7.188;2023-05-07T13:50:08;2.55;;;2.35;;
9940;SDS011;5009;50.656;7.188;2023-05-07T13:52:34;2.47;;;2.28;;
9940;SDS011;5009;50.656;7.188;2023-05-07T13:55:00;2.38;;;2.28;;
9940;SDS011;5009;50.656;7.188;2023-05-07T13:57:25;3.50;;;2.22;;
9940;SDS011;5009;50.656;7.188;2023-05-07T13:59:51;2.50;;;2.30;;
9940;SDS011;5009;50.656;7.188;2023-05-07T14:02:16;2.00;;;1.90;;
9940;SDS011;5009;50.656;7.188;2023-05-07T14:04:42;2.40;;;2.30;;
9940;SDS011;5009;50.656;7.188;2023-05-07T14:07:07;2.63;;;2.42;;
9940;SDS011;5009;50.656;7.188;2023-05-07T14:09:33;2.88;;;2.70;;
9940;SDS011;5009;50.656;7.188;2023-05-07T14:11:58;3.67;;;2.58;;
9940;SDS011;5009;50.656;7.188;2023-05-07T14:14:25;2.90;;;2.70;;
9940;SDS011;5009;50.656;7.188;2023-05-07T14:16:50;4.68;;;2.92;;
9940;SDS011;5009;50.656;7.188;2023-05-07T14:19:16;11.15;;;4.35;;
9940;SDS011;5009;50.656;7.188;2023-05-07T14:21:41;18.45;;;6.40;;
9940;SDS011;5009;50.656;7.188;2023-05-07T14:24:07;11.95;;;4.85;;
9940;SDS011;5009;50.656;7.188;2023-05-07T14:26:33;8.93;;;5.00;;
9940;SDS011;5009;50.656;7.188;2023-05-07T14:28:59;12.02;;;5.20;;
9940;SDS011;5009;50.656;7.188;2023-05-07T14:31:25;5.20;;;4.20;;
9940;SDS011;5009;50.656;7.188;2023-05-07T14:33:50;8.93;;;4.25;;
9940;SDS011;5009;50.656;7.188;2023-05-07T14:36:17;9.98;;;4.65;;
9940;SDS011;5009;50.656;7.188;2023-05-07T14:38:45;7.05;;;4.13;;
9940;SDS011;5009;50.656;7.188;2023-05-07T14:41:11;5.50;;;3.40;;
9940;SDS011;5009;50.656;7.188;2023-05-07T14:43:36;7.25;;;3.92;;
9940;SDS011;5009;50.656;7.188;2023-05-07T14:46:02;6.93;;;3.85;;
9940;SDS011;5009;50.656;7.188;2023-05-07T14:48:28;7.85;;;4.03;;
9940;SDS011;5009;50.656;7.188;2023-05-07T14:50:53;6.60;;;4.55;;
9940;SDS011;5009;50.656;7.188;2023-05-07T14:53:19;9.57;;;4.50;;
9940;SDS011;5009;50.656;7.188;2023-05-07T14:55:44;7.13;;;3.65;;
9940;SDS011;5009;50.656;7.188;2023-05-07T14:58:10;9.98;;;3.47;;
9940;SDS011;5009;50.656;7.188;2023-05-07T15:00:36;6.50;;;4.03;;
9940;SDS011;5009;50.656;7.188;2023-05-07T15:03:06;7.40;;;3.70;;
9940;SDS011;5009;50.656;7.188;2023-05-07T15:05:32;7.03;;;3.95;;
9940;SDS011;5009;50.656;7.188;2023-05-07T15:07:58;4.30;;;3.47;;
9940;SDS011;5009;50.656;7.188;2023-05-07T15:10:24;5.30;;;3.00;;
9940;SDS011;5009;50.656;7.188;2023-05-07T15:12:50;7.60;;;3.70;;
9940;SDS011;5009;50.656;7.188;2023-05-07T15:15:15;4.90;;;4.40;;
9940;SDS011;5009;50.656;7.188;2023-05-07T15:17:41;8.00;;;4.72;;
9940;SDS011;5009;50.656;7.188;2023-05-07T15:20:07;5.97;;;3.92;;
9940;SDS011;5009;50.656;7.188;2023-05-07T15:22:33;8.93;;;3.58;;
9940;SDS011;5009;50.656;7.188;2023-05-07T15:24:59;6.07;;;3.40;;
9940;SDS011;5009;50.656;7.188;2023-05-07T15:27:24;5.00;;;3.10;;
9940;SDS011;5009;50.656;7.188;2023-05-07T15:29:51;3.83;;;3.42;;
9940;SDS011;5009;50.656;7.188;2023-05-07T15:32:16;4.97;;;3.35;;
9940;SDS011;5009;50.656;7.188;2023-05-07T15:34:42;6.60;;;3.33;;
9940;SDS011;5009;50.656;7.188;2023-05-07T15:37:07;4.50;;;3.72;;
9940;SDS011;5009;50.656;7.188;2023-05-07T15:39:33;6.63;;;3.83;;
9940;SDS011;5009;50.656;7.188;2023-05-07T15:41:58;5.93;;;3.83;;
9940;SDS011;5009;50.656;7.188;2023-05-07T15:44:24;13.95;;;3.95;;
9940;SDS011;5009;50.656;7.188;2023-05-07T15:46:55;5.40;;;3.03;;
9940;SDS011;5009;50.656;7.188;2023-05-07T15:49:20;6.47;;;2.92;;
9940;SDS011;5009;50.656;7.188;2023-05-07T15:51:46;7.07;;;2.63;;
9940;SDS011;5009;50.656;7.188;2023-05-07T15:54:12;7.10;;;3.20;;
9940;SDS011;5009;50.656;7.188;2023-05-07T15:56:38;5.75;;;3.83;;
9940;SDS011;5009;50.656;7.188;2023-05-07T15:59:03;6.57;;;3.38;;
9940;SDS011;5009;50.656;7.188;2023-05-07T16:01:30;8.65;;;3.50;;
9940;SDS011;5009;50.656;7.188;2023-05-07T16:03:56;6.38;;;3.17;;
9940;SDS011;5009;50.656;7.188;2023-05-07T16:06:22;4.93;;;3.08;;
9940;SDS011;5009;50.656;7.188;2023-05-07T16:08:48;9.07;;;3.17;;
9940;SDS011;5009;50.656;7.188;2023-05-07T16:11:13;3.63;;;3.30;;
9940;SDS011;5009;50.656;7.188;2023-05-07T16:13:39;5.97;;;3.35;;
9940;SDS011;5009;50.656;7.188;2023-05-07T16:16:05;7.00;;;3.40;;
9940;SDS011;5009;50.656;7.188;2023-05-07T16:18:31;4.30;;;3.60;;
9940;SDS011;5009;50.656;7.188;2023-05-07T16:20:57;3.45;;;3.15;;
9940;SDS011;5009;50.656;7.188;2023-05-07T16:23:24;4.60;;;3.88;;
9940;SDS011;5009;50.656;7.188;2023-05-07T16:25:50;6.55;;;4.28;;
9940;SDS011;5009;50.656;7.188;2023-05-07T16:28:16;5.25;;;4.28;;
9940;SDS011;5009;50.656;7.188;2023-05-07T16:30:41;5.13;;;4.60;;
9940;SDS011;5009;50.656;7.188;2023-05-07T16:33:07;6.30;;;4.80;;
9940;SDS011;5009;50.656;7.188;2023-05-07T16:35:33;6.00;;;4.50;;
9940;SDS011;5009;50.656;7.188;2023-05-07T16:37:58;5.82;;;5.22;;
9940;SDS011;5009;50.656;7.188;2023-05-07T16:40:25;8.30;;;4.97;;
9940;SDS011;5009;50.656;7.188;2023-05-07T16:42:51;6.70;;;5.45;;
9940;SDS011;5009;50.656;7.188;2023-05-07T16:45:17;8.07;;;5.30;;
9940;SDS011;5009;50.656;7.188;2023-05-07T16:47:43;6.10;;;5.45;;
9940;SDS011;5009;50.656;7.188;2023-05-07T16:50:09;6.85;;;5.68;;
9940;SDS011;5009;50.656;7.188;2023-05-07T16:52:35;6.10;;;5.47;;
9940;SDS011;5009;50.656;7.188;2023-05-07T16:55:01;9.50;;;5.68;;
9940;SDS011;5009;50.656;7.188;2023-05-07T16:57:28;8.45;;;5.97;;
9940;SDS011;5009;50.656;7.188;2023-05-07T16:59:56;5.38;;;4.93;;
9940;SDS011;5009;50.656;7.188;2023-05-07T17:02:23;7.88;;;5.63;;
9940;SDS011;5009;50.656;7.188;2023-05-07T17:04:49;8.02;;;5.97;;
9940;SDS011;5009;50.656;7.188;2023-05-07T17:07:15;6.80;;;5.82;;
9940;SDS011;5009;50.656;7.188;2023-05-07T17:09:41;8.25;;;6.28;;
9940;SDS011;5009;50.656;7.188;2023-05-07T17:12:06;7.03;;;5.75;;
9940;SDS011;5009;50.656;7.188;2023-05-07T17:14:32;6.90;;;5.47;;
9940;SDS011;5009;50.656;7.188;2023-05-07T17:16:58;6.90;;;6.05;;
9940;SDS011;5009;50.656;7.188;2023-05-07T17:19:23;8.82;;;5.63;;
9940;SDS011;5009;50.656;7.188;2023-05-07T17:21:49;5.85;;;5.22;;
9940;SDS011;5009;50.656;7.188;2023-05-07T17:24:15;6.78;;;5.28;;
9940;SDS011;5009;50.656;7.188;2023-05-07T17:26:41;5.38;;;4.97;;
9940;SDS011;5009;50.656;7.188;2023-05-07T17:29:07;6.18;;;5.20;;
9940;SDS011;5009;50.656;7.188;2023-05-07T17:31:33;6.00;;;5.40;;
9940;SDS011;5009;50.656;7.188;2023-05-07T17:33:59;7.10;;;5.15;;
9940;SDS011;5009;50.656;7.188;2023-05-07T17:36:25;6.85;;;5.68;;
9940;SDS011;5009;50.656;7.188;2023-05-07T17:38:51;6.55;;;5.88;;
9940;SDS011;5009;50.656;7.188;2023-05-07T17:41:16;6.82;;;5.40;;
9940;SDS011;5009;50.656;7.188;2023-05-07T17:43:42;6.10;;;5.50;;
9940;SDS011;5009;50.656;7.188;2023-05-07T17:46:08;7.82;;;5.88;;
9940;SDS011;5009;50.656;7.188;2023-05-07T17:48:34;11.73;;;6.82;;
9940;SDS011;5009;50.656;7.188;2023-05-07T17:51:00;8.45;;;6.68;;
9940;SDS011;5009;50.656;7.188;2023-05-07T17:53:27;6.90;;;6.07;;
9940;SDS011;5009;50.656;7.188;2023-05-07T17:55:52;7.63;;;6.38;;
9940;SDS011;5009;50.656;7.188;2023-05-07T17:58:19;12.45;;;7.47;;
9940;SDS011;5009;50.656;7.188;2023-05-07T18:00:46;8.35;;;6.72;;
9940;SDS011;5009;50.656;7.188;2023-05-07T18:03:13;7.40;;;6.25;;
9940;SDS011;5009;50.656;7.188;2023-05-07T18:05:39;7.88;;;6.03;;
9940;SDS011;5009;50.656;7.188;2023-05-07T18:08:07;10.38;;;6.40;;
9940;SDS011;5009;50.656;7.188;2023-05-07T18:10:33;9.27;;;7.10;;
9940;SDS011;5009;50.656;7.188;2023-05-07T18:12:59;8.85;;;7.00;;
9940;SDS011;5009;50.656;7.188;2023-05-07T18:15:24;8.13;;;6.85;;
9940;SDS011;5009;50.656;7.188;2023-05-07T18:17:50;9.02;;;7.18;;
9940;SDS011;5009;50.656;7.188;2023-05-07T18:20:16;8.98;;;7.25;;
9940;SDS011;5009;50.656;7.188;2023-05-07T18:22:42;9.50;;;7.25;;
9940;SDS011;5009;50.656;7.188;2023-05-07T18:25:07;10.65;;;7.25;;
9940;SDS011;5009;50.656;7.188;2023-05-07T18:27:33;7.13;;;6.40;;
9940;SDS011;5009;50.656;7.188;2023-05-07T18:29:59;6.07;;;5.47;;
9940;SDS011;5009;50.656;7.188;2023-05-07T18:32:24;7.80;;;5.45;;
9940;SDS011;5009;50.656;7.188;2023-05-07T18:34:51;10.13;;;6.68;;
9940;SDS011;5009;50.656;7.188;2023-05-07T18:37:18;9.90;;;6.75;;
9940;SDS011;5009;50.656;7.188;2023-05-07T18:39:44;7.93;;;7.07;;
9940;SDS011;5009;50.656;7.188;2023-05-07T18:42:11;8.52;;;6.40;;
9940;SDS011;5009;50.656;7.188;2023-05-07T18:44:37;6.35;;;5.65;;
9940;SDS011;5009;50.656;7.188;2023-05-07T18:47:03;7.45;;;6.15;;
9940;SDS011;5009;50.656;7.188;2023-05-07T18:49:31;6.60;;;5.60;;
9940;SDS011;5009;50.656;7.188;2023-05-07T18:51:57;6.25;;;5.65;;
9940;SDS011;5009;50.656;7.188;2023-05-07T18:54:23;6.13;;;5.63;;
9940;SDS011;5009;50.656;7.188;2023-05-07T18:56:49;6.72;;;6.07;;
9940;SDS011;5009;50.656;7.188;2023-05-07T18:59:15;6.50;;;5.90;;
9940;SDS011;5009;50.656;7.188;2023-05-07T19:01:40;5.85;;;5.28;;
9940;SDS011;5009;50.656;7.188;2023-05-07T19:04:07;6.68;;;5.97;;
9940;SDS011;5009;50.656;7.188;2023-05-07T19:06:32;6.20;;;5.60;;
9940;SDS011;5009;50.656;7.188;2023-05-07T19:08:58;6.72;;;5.90;;
9940;SDS011;5009;50.656;7.188;2023-05-07T19:11:23;5.90;;;5.32;;
9940;SDS011;5009;50.656;7.188;2023-05-07T19:13:49;7.13;;;6.15;;
9940;SDS011;5009;50.656;7.188;2023-05-07T19:16:16;7.68;;;5.78;;
9940;SDS011;5009;50.656;7.188;2023-05-07T19:18:42;8.05;;;6.00;;
9940;SDS011;5009;50.656;7.188;2023-05-07T19:21:07;6.45;;;5.75;;
9940;SDS011;5009;50.656;7.188;2023-05-07T19:23:37;7.03;;;6.32;;
9940;SDS011;5009;50.656;7.188;2023-05-07T19:26:09;6.38;;;5.60;;
9940;SDS011;5009;50.656;7.188;2023-05-07T19:28:38;6.47;;;5.90;;
9940;SDS011;5009;50.656;7.188;2023-05-07T19:31:05;5.93;;;5.43;;
9940;SDS011;5009;50.656;7.188;2023-05-07T19:33:31;5.80;;;5.30;;
9940;SDS011;5009;50.656;7.188;2023-05-07T19:35:59;6.78;;;5.03;;
9940;SDS011;5009;50.656;7.188;2023-05-07T19:38:25;5.13;;;4.72;;
9940;SDS011;5009;50.656;7.188;2023-05-07T19:40:52;5.43;;;4.95;;